createdAt,value
2022-11-20T00:01:47.688Z,64.95
2022-11-20T00:05:04.137Z,65.25
2022-11-20T00:08:21.576Z,63.73
2022-11-20T00:11:40.105Z,65.13
2022-11-20T00:14:56.448Z,64.93
2022-11-20T00:18:13.135Z,63.88
2022-11-20T00:21:32.671Z,61.60
2022-11-20T00:24:49.181Z,62.53
2022-11-20T00:28:05.594Z,61.58
2022-11-20T00:31:25.730Z,61.57
2022-11-20T00:34:42.069Z,64.10
2022-11-20T00:37:58.735Z,61.48
2022-11-20T00:41:17.819Z,63.43
2022-11-20T00:44:34.773Z,63.83
2022-11-20T00:47:51.503Z,62.65
2022-11-20T00:51:08.770Z,62.95
2022-11-20T00:54:25.096Z,60.65
2022-11-20T00:57:42.488Z,62.30
2022-11-20T01:00:58.964Z,61.25
2022-11-20T01:04:15.683Z,61.85
2022-11-20T01:07:32.349Z,61.85
2022-11-20T01:10:48.907Z,60.88
2022-11-20T01:14:07.739Z,61.93
2022-11-20T01:17:24.265Z,59.08
2022-11-20T01:20:43.009Z,59.75
2022-11-20T01:24:00.780Z,60.10
2022-11-20T01:27:17.652Z,59.68
2022-11-20T01:30:34.676Z,61.38
2022-11-20T01:33:52.721Z,59.83
2022-11-20T01:37:09.302Z,59.40
2022-11-20T01:40:26.000Z,57.40
2022-11-20T01:43:43.402Z,59.20
2022-11-20T01:47:07.502Z,58.68
2022-11-20T01:50:30.589Z,57.03
2022-11-20T01:53:50.305Z,56.35
2022-11-20T01:57:09.907Z,57.48
2022-11-20T02:00:29.287Z,57.18
2022-11-20T02:07:04.073Z,57.23
2022-11-20T02:10:21.051Z,57.13
2022-11-20T02:13:49.580Z,56.38
2022-11-20T02:17:06.251Z,57.30
2022-11-20T02:20:23.663Z,55.13
2022-11-20T02:23:45.720Z,57.63
2022-11-20T02:27:06.098Z,55.95
2022-11-20T02:30:24.117Z,56.60
2022-11-20T02:33:40.655Z,56.70
2022-11-20T02:37:17.564Z,56.88
2022-11-20T02:40:34.612Z,56.65
2022-11-20T02:43:51.248Z,54.48
2022-11-20T02:47:10.234Z,56.15
2022-11-20T02:50:27.907Z,57.20
2022-11-20T02:53:44.325Z,57.80
2022-11-20T02:57:01.149Z,56.95
2022-11-20T03:00:21.870Z,58.85
2022-11-20T03:03:39.164Z,55.73
2022-11-20T03:06:56.867Z,57.73
2022-11-20T03:10:15.460Z,52.85
2022-11-20T03:13:33.738Z,55.80
2022-11-20T03:16:50.478Z,56.28
2022-11-20T03:20:07.748Z,54.75
2022-11-20T03:23:24.136Z,55.53
2022-11-20T03:26:41.421Z,55.73
2022-11-20T03:29:58.217Z,55.05
2022-11-20T03:33:14.793Z,55.10
2022-11-20T03:36:32.776Z,55.68
2022-11-20T03:39:49.477Z,55.43
2022-11-20T03:43:06.425Z,54.18
2022-11-20T03:46:27.855Z,54.73
2022-11-20T03:49:45.302Z,54.30
2022-11-20T03:53:01.817Z,54.80
2022-11-20T03:56:20.697Z,56.83
2022-11-20T03:59:37.717Z,55.58
2022-11-20T04:02:55.452Z,56.65
2022-11-20T04:06:17.625Z,56.25
2022-11-20T04:09:35.162Z,54.13
2022-11-20T04:12:52.576Z,55.58
2022-11-20T04:16:10.713Z,56.13
2022-11-20T04:19:27.722Z,54.53
2022-11-20T04:22:44.593Z,55.90
2022-11-20T04:26:01.340Z,57.18
2022-11-20T04:29:21.420Z,55.73
2022-11-20T04:32:39.043Z,57.10
2022-11-20T04:35:57.624Z,57.53
2022-11-20T04:39:19.111Z,59.13
2022-11-20T04:42:36.289Z,59.25
2022-11-20T04:45:58.433Z,60.00
2022-11-20T04:49:15.652Z,60.48
2022-11-20T04:52:32.599Z,64.65
2022-11-20T04:55:49.086Z,64.83
2022-11-20T04:59:08.351Z,63.33
2022-11-20T05:02:24.847Z,60.65
2022-11-20T05:05:42.102Z,62.78
2022-11-20T05:08:58.703Z,62.10
2022-11-20T05:12:16.982Z,62.93
2022-11-20T05:15:33.846Z,60.68
2022-11-20T05:18:51.367Z,62.33
2022-11-20T05:22:07.930Z,62.70
2022-11-20T05:25:24.681Z,64.60
2022-11-20T05:28:42.131Z,62.03
2022-11-20T05:31:59.116Z,62.53
2022-11-20T05:35:18.119Z,61.88
2022-11-20T05:38:35.406Z,62.13
2022-11-20T05:41:54.204Z,61.93
2022-11-20T05:45:13.542Z,64.10
2022-11-20T05:48:29.850Z,63.43
2022-11-20T05:51:46.170Z,65.83
2022-11-20T05:55:02.521Z,72.05
2022-11-20T05:58:18.898Z,70.55
2022-11-20T06:01:37.608Z,66.90
2022-11-20T06:04:53.878Z,64.65
2022-11-20T06:08:11.540Z,62.75
2022-11-20T06:11:29.269Z,63.35
2022-11-20T06:14:46.786Z,67.40
2022-11-20T06:18:05.931Z,69.65
2022-11-20T06:21:27.165Z,68.43
2022-11-20T06:24:43.657Z,70.40
2022-11-20T06:28:00.912Z,69.95
2022-11-20T06:31:20.211Z,72.78
2022-11-20T06:34:36.533Z,74.50
2022-11-20T06:37:53.356Z,72.38
2022-11-20T06:41:09.780Z,70.58
2022-11-20T06:44:26.684Z,71.35
2022-11-20T06:47:43.186Z,71.63
2022-11-20T06:50:59.580Z,71.93
2022-11-20T06:54:16.525Z,69.83
2022-11-20T06:57:32.970Z,72.23
2022-11-20T07:00:49.559Z,73.43
2022-11-20T07:04:09.225Z,72.80
2022-11-20T07:07:26.323Z,77.28
2022-11-20T07:10:43.241Z,71.60
2022-11-20T07:14:00.416Z,70.40
2022-11-20T07:17:17.475Z,70.38
2022-11-20T07:20:33.813Z,69.88
2022-11-20T07:23:50.467Z,66.95
2022-11-20T07:27:07.675Z,70.35
2022-11-20T07:30:28.647Z,70.73
2022-11-20T07:33:50.006Z,70.70
2022-11-20T07:37:10.363Z,72.10
2022-11-20T07:40:26.118Z,71.33
2022-11-20T07:43:48.417Z,72.60
2022-11-20T07:47:06.479Z,70.73
2022-11-20T07:50:24.883Z,66.83
2022-11-20T07:53:50.535Z,70.18
2022-11-20T07:57:11.281Z,67.08
2022-11-20T08:00:29.881Z,66.93
2022-11-20T08:03:46.914Z,69.93
2022-11-20T08:07:06.690Z,66.05
2022-11-20T08:10:30.418Z,68.00
2022-11-20T08:14:05.424Z,69.58
2022-11-20T08:17:22.441Z,65.33
2022-11-20T08:21:12.164Z,66.03
2022-11-20T08:24:28.883Z,63.85
2022-11-20T08:27:45.475Z,64.35
2022-11-20T08:31:06.265Z,61.73
2022-11-20T08:34:37.790Z,60.90
2022-11-20T08:38:03.154Z,61.30
2022-11-20T08:41:34.142Z,66.38
2022-11-20T08:44:51.005Z,65.68
2022-11-20T08:48:15.485Z,65.88
2022-11-20T08:51:31.951Z,65.18
2022-11-20T08:54:48.454Z,64.53
2022-11-20T08:58:05.971Z,66.50
2022-11-20T09:01:28.051Z,67.25
2022-11-20T09:04:46.512Z,69.38
2022-11-20T09:08:05.175Z,69.33
2022-11-20T09:11:24.201Z,68.58
2022-11-20T09:14:41.046Z,65.93
2022-11-20T09:18:03.508Z,67.78
2022-11-20T09:21:26.800Z,65.80
2022-11-20T09:24:46.749Z,67.88
2022-11-20T09:28:08.728Z,68.20
2022-11-20T09:31:30.585Z,66.50
2022-11-20T09:34:46.948Z,66.98
2022-11-20T09:38:03.276Z,69.00
2022-11-20T09:41:42.650Z,64.83
2022-11-20T09:45:25.837Z,66.80
2022-11-20T09:48:58.613Z,68.88
2022-11-20T09:52:23.561Z,65.90
2022-11-20T09:55:40.500Z,65.53
2022-11-20T09:59:00.688Z,66.48
2022-11-20T10:02:30.411Z,65.73
2022-11-20T10:05:52.147Z,66.68
2022-11-20T10:09:23.678Z,65.68
2022-11-20T10:12:48.690Z,67.15
2022-11-20T10:16:14.401Z,71.18
2022-11-20T10:19:55.875Z,72.05
2022-11-20T10:23:33.932Z,70.58
2022-11-20T10:26:57.414Z,69.43
2022-11-20T10:30:20.384Z,68.15
2022-11-20T10:34:05.037Z,67.08
2022-11-20T10:37:05.471Z,66.58
2022-11-20T10:40:34.205Z,71.13
2022-11-20T10:43:50.673Z,67.80
2022-11-20T10:47:08.366Z,69.20
2022-11-20T10:50:28.507Z,68.38
2022-11-20T10:54:08.382Z,67.93
2022-11-20T10:57:34.619Z,67.48
2022-11-20T11:00:51.369Z,70.95
2022-11-20T11:04:08.806Z,69.63
2022-11-20T11:07:29.534Z,129.20
2022-11-20T11:10:52.317Z,77.13
2022-11-20T11:14:20.324Z,72.28
2022-11-20T11:17:40.283Z,71.78
2022-11-20T11:21:03.687Z,70.15
2022-11-20T11:24:46.548Z,72.20
2022-11-20T11:28:01.053Z,69.90
2022-11-20T11:31:20.731Z,70.25
2022-11-20T11:34:38.298Z,73.73
2022-11-20T11:38:00.178Z,70.25
2022-11-20T11:41:22.102Z,71.48
2022-11-20T11:44:55.392Z,71.40
2022-11-20T11:48:18.223Z,69.20
2022-11-20T11:51:42.877Z,71.08
2022-11-20T11:55:10.199Z,69.18
2022-11-20T11:58:35.865Z,71.75
2022-11-20T12:02:01.529Z,168.53
2022-11-20T12:05:30.968Z,104.50
2022-11-20T12:08:55.195Z,78.80
2022-11-20T12:12:15.722Z,73.38
2022-11-20T12:15:43.193Z,71.08
2022-11-20T12:19:01.367Z,70.23
2022-11-20T12:22:23.944Z,69.73
2022-11-20T12:25:43.472Z,69.30
2022-11-20T12:32:47.699Z,73.45
2022-11-20T12:36:16.260Z,72.55
2022-11-20T12:39:53.846Z,71.25
2022-11-20T12:43:34.416Z,67.18
2022-11-20T12:46:54.291Z,71.80
2022-11-20T12:50:15.385Z,72.50
2022-11-20T12:53:39.744Z,74.68
2022-11-20T12:57:03.998Z,75.25
2022-11-20T13:00:24.086Z,72.38
2022-11-20T13:03:55.458Z,74.63
2022-11-20T13:07:18.825Z,72.48
2022-11-20T13:10:42.154Z,73.25
2022-11-20T13:14:17.850Z,74.33
2022-11-20T13:17:39.963Z,75.35
2022-11-20T13:20:56.706Z,74.78
2022-11-20T13:24:29.452Z,72.60
2022-11-20T13:27:54.745Z,74.03
2022-11-20T13:31:11.252Z,75.63
2022-11-20T13:34:34.413Z,73.70
2022-11-20T13:37:50.555Z,73.68
2022-11-20T13:41:11.030Z,74.75
2022-11-20T13:44:36.120Z,72.43
2022-11-20T13:47:58.836Z,72.80
2022-11-20T13:51:34.395Z,75.78
2022-11-20T13:55:14.280Z,76.20
2022-11-20T13:58:41.017Z,75.60
2022-11-20T14:01:58.133Z,76.33
2022-11-20T14:05:21.271Z,76.48
2022-11-20T14:08:44.454Z,78.13
2022-11-20T14:12:01.465Z,73.60
2022-11-20T14:19:35.682Z,73.38
2022-11-20T14:22:58.790Z,77.73
2022-11-20T14:26:18.672Z,75.68
2022-11-20T14:29:40.405Z,77.30
2022-11-20T14:32:58.566Z,81.10
2022-11-20T14:36:20.118Z,80.08
2022-11-20T14:39:41.307Z,76.50
2022-11-20T14:42:57.665Z,76.18
2022-11-20T14:46:17.057Z,76.85
2022-11-20T14:49:37.200Z,76.65
2022-11-20T14:53:02.681Z,78.30
2022-11-20T14:56:20.274Z,77.35
2022-11-20T14:59:39.650Z,85.22
2022-11-20T15:06:13.186Z,84.63
2022-11-20T15:09:33.710Z,82.13
2022-11-20T15:12:58.712Z,79.95
2022-11-20T15:16:20.613Z,77.03
2022-11-20T15:19:37.629Z,80.58
2022-11-20T15:22:54.133Z,80.33
2022-11-20T15:26:18.364Z,83.65
2022-11-20T15:29:32.505Z,82.63
2022-11-20T15:32:49.098Z,83.60
2022-11-20T15:36:06.397Z,83.55
2022-11-20T15:39:23.811Z,84.63
2022-11-20T15:42:42.287Z,81.03
2022-11-20T15:46:03.596Z,85.92
2022-11-20T15:49:25.418Z,87.80
2022-11-20T15:52:42.346Z,84.95
2022-11-20T15:55:58.793Z,85.68
2022-11-20T15:59:16.696Z,86.05
2022-11-20T16:02:32.959Z,84.67
2022-11-20T16:05:49.345Z,81.33
2022-11-20T16:09:07.221Z,82.20
2022-11-20T16:12:33.532Z,83.78
2022-11-20T16:15:52.963Z,87.58
2022-11-20T16:19:20.290Z,83.05
2022-11-20T16:22:36.944Z,82.80
2022-11-20T16:25:53.723Z,84.18
2022-11-20T16:29:14.858Z,81.80
2022-11-20T16:32:36.064Z,85.45
2022-11-20T16:35:53.089Z,81.20
2022-11-20T16:39:11.530Z,82.75
2022-11-20T16:42:27.897Z,83.58
2022-11-20T16:45:49.214Z,82.85
2022-11-20T16:49:07.930Z,86.30
2022-11-20T16:52:24.187Z,84.43
2022-11-20T16:55:42.541Z,86.50
2022-11-20T16:59:00.204Z,86.10
2022-11-20T17:02:18.468Z,83.10
2022-11-20T17:05:37.240Z,84.55
2022-11-20T17:08:54.046Z,85.73
2022-11-20T17:12:10.920Z,84.98
2022-11-20T17:15:28.173Z,82.00
2022-11-20T17:18:46.650Z,81.23
2022-11-20T17:22:03.084Z,82.23
2022-11-20T17:25:19.814Z,81.65
2022-11-20T17:28:37.012Z,84.63
2022-11-20T17:31:55.054Z,85.00
2022-11-20T17:35:12.258Z,86.93
2022-11-20T17:38:32.150Z,83.75
2022-11-20T17:41:50.756Z,86.08
2022-11-20T17:45:07.379Z,85.17
2022-11-20T17:48:23.746Z,84.80
2022-11-20T17:51:42.873Z,85.58
2022-11-20T17:54:59.908Z,85.83
2022-11-20T17:58:16.107Z,86.73
2022-11-20T18:01:32.819Z,88.48
2022-11-20T18:04:49.081Z,87.72
2022-11-20T18:08:05.562Z,87.10
2022-11-20T18:11:25.499Z,87.28
2022-11-20T18:15:00.924Z,93.40
2022-11-20T18:18:17.125Z,93.10
2022-11-20T18:21:35.754Z,94.60
2022-11-20T18:24:52.151Z,93.10
2022-11-20T18:28:09.507Z,90.83
2022-11-20T18:31:26.546Z,90.25
2022-11-20T18:34:42.951Z,88.53
2022-11-20T18:37:59.193Z,85.73
2022-11-20T18:41:31.225Z,146.88
2022-11-20T18:44:56.658Z,91.15
2022-11-20T18:48:13.647Z,86.43
2022-11-20T18:51:29.945Z,86.13
2022-11-20T18:54:46.562Z,84.25
2022-11-20T18:58:03.167Z,83.85
2022-11-20T19:01:19.544Z,82.85
2022-11-20T19:04:37.667Z,84.40
2022-11-20T19:07:53.857Z,84.90
2022-11-20T19:11:18.094Z,83.80
2022-11-20T19:14:34.470Z,83.95
2022-11-20T19:17:50.896Z,82.65
2022-11-20T19:21:14.506Z,82.03
2022-11-20T19:24:31.273Z,79.38
2022-11-20T19:27:47.812Z,85.05
2022-11-20T19:31:05.990Z,83.20
2022-11-20T19:34:23.031Z,82.72
2022-11-20T19:37:44.647Z,89.93
2022-11-20T19:41:02.761Z,84.43
2022-11-20T19:44:21.373Z,81.95
2022-11-20T19:50:59.952Z,84.63
2022-11-20T19:57:31.656Z,89.65
2022-11-20T20:00:47.952Z,88.73
2022-11-20T20:04:10.709Z,91.13
2022-11-20T20:07:27.232Z,89.13
2022-11-20T20:10:43.628Z,88.40
2022-11-20T20:14:00.873Z,94.25
2022-11-20T20:17:17.086Z,84.67
2022-11-20T20:20:33.875Z,88.50
2022-11-20T20:23:50.735Z,105.48
2022-11-20T20:27:11.493Z,92.38
2022-11-20T20:33:47.043Z,85.88
2022-11-20T20:37:04.793Z,87.15
2022-11-20T20:40:24.311Z,87.10
2022-11-20T20:43:43.148Z,82.75
2022-11-20T20:47:01.524Z,89.00
2022-11-20T20:50:19.902Z,86.50
2022-11-20T20:53:38.133Z,85.67
2022-11-20T20:56:57.979Z,86.40
2022-11-20T21:00:17.106Z,87.30
2022-11-20T21:03:33.371Z,84.85
2022-11-20T21:06:49.784Z,86.98
2022-11-20T21:10:06.041Z,84.18
2022-11-20T21:13:22.991Z,86.10
2022-11-20T21:16:41.801Z,83.28
2022-11-20T21:19:59.967Z,83.28
2022-11-20T21:23:20.910Z,88.30
2022-11-20T21:26:38.114Z,87.33
2022-11-20T21:29:54.473Z,85.92
2022-11-20T21:33:11.018Z,82.23
2022-11-20T21:36:29.660Z,84.58
2022-11-20T21:39:48.404Z,82.93
2022-11-20T21:43:04.745Z,84.98
2022-11-20T21:46:23.497Z,80.68
2022-11-20T21:49:39.869Z,82.95
2022-11-20T21:52:55.960Z,82.35
2022-11-20T21:56:19.981Z,82.43
2022-11-20T21:59:32.954Z,82.50
2022-11-20T22:02:49.598Z,80.05
2022-11-20T22:06:07.487Z,82.25
2022-11-20T22:09:23.699Z,83.50
2022-11-20T22:12:40.401Z,81.45
2022-11-20T22:16:01.096Z,82.45
2022-11-20T22:19:15.483Z,81.75
2022-11-20T22:22:31.947Z,83.85
2022-11-20T22:25:48.595Z,82.83
2022-11-20T22:29:06.455Z,83.78
2022-11-20T22:32:22.778Z,80.83
2022-11-20T22:35:39.760Z,81.68
2022-11-20T22:38:56.801Z,81.75
2022-11-20T22:42:14.011Z,86.13
2022-11-20T22:45:30.175Z,83.08
2022-11-20T22:48:48.027Z,84.60
2022-11-20T22:52:04.688Z,83.13
2022-11-20T22:55:21.252Z,85.33
2022-11-20T22:58:39.485Z,82.20
2022-11-20T23:01:55.608Z,80.63
2022-11-20T23:05:13.033Z,84.08
2022-11-20T23:08:29.077Z,85.53
2022-11-20T23:11:46.638Z,84.88
2022-11-20T23:15:02.802Z,85.48
2022-11-20T23:18:19.580Z,84.50
2022-11-20T23:21:36.813Z,86.20
2022-11-20T23:24:53.044Z,84.05
2022-11-20T23:28:09.255Z,84.78
2022-11-20T23:31:26.310Z,84.50
2022-11-20T23:34:42.473Z,85.00
2022-11-20T23:38:01.062Z,84.08
2022-11-20T23:41:18.512Z,84.45
2022-11-20T23:44:35.610Z,82.70
2022-11-20T23:47:51.819Z,83.03
2022-11-20T23:51:08.647Z,81.90
2022-11-20T23:54:25.191Z,83.08
2022-11-20T23:57:41.894Z,81.23
